Data for 09/26/2006

Time Sea-Level Adjusted Pressure Absolute Pressure Temperature Relative Humidity Dew Point   
(mb) (inHg) (mb) (inHg) (C) (F) (%) (C) (F)
00:05 1022 30.18 851 25.13 9.1 48.4 56 0.8 33.4
00:10 1022 30.18 851 25.13 9 48.2 57 1 33.7
00:15 1022 30.18 851 25.13 8.7 47.6 57 0.7 33.3
00:20 1022 30.18 851 25.13 8.9 47.9 56 0.6 33
00:25 1022 30.18 851 25.13 9.2 48.6 54 0.5 32.9
00:30 1022 30.18 851 25.13 9.6 49.3 53 0.6 33.1
00:35 1022 30.18 851 25.13 9.7 49.5 53 0.7 33.2
00:40 1022 30.18 851 25.13 9.3 48.8 55 0.9 33.6
00:45 1022 30.18 851 25.13 9.2 48.5 54 0.3 32.5
00:50 1022 30.18 851 25.13 9.6 49.3 52 0.4 32.7
00:55 1022 30.18 851 25.13 9.7 49.4 52 0.4 32.6
01:00 1022 30.18 851 25.13 9.8 49.7 52 0.5 32.9
01:05 1022 30.18 851 25.13 9.5 49.1 55 1 33.9
01:10 1022 30.18 852 25.16 9.1 48.3 55 0.5 32.9
01:15 1022 30.18 851 25.13 9.3 48.8 53 0.2 32.3
01:20 1022 30.18 851 25.13 9.6 49.2 52 0.3 32.6
01:25 1022 30.18 851 25.13 9.3 48.7 53 0.3 32.6
01:30 1022 30.18 851 25.13 9.6 49.2 51 -0.1 31.7
01:35 1022 30.18 851 25.13 9.8 49.7 51 0.1 32.2
01:40 1022 30.18 851 25.13 10.2 50.3 50 0.2 32.4
01:45 1022 30.18 851 25.13 10.2 50.4 49 -0.1 31.9
01:50 1022 30.18 851 25.13 10.2 50.4 48 -0.1 31.7
01:55 1022 30.18 851 25.13 10.1 50.2 50 0.2 32.4
02:00 1022 30.18 851 25.13 10.2 50.4 48 -0.2 31.6
02:05 1022 30.18 851 25.13 10.2 50.4 48 -0.3 31.5
02:10 1022 30.18 851 25.13 10.2 50.4 50 0.2 32.4
02:15 1022 30.18 851 25.13 9.7 49.4 51 -0 32
02:20 1022 30.18 851 25.13 9.5 49 53 0.4 32.8
02:25 1022 30.18 851 25.13 9.3 48.8 52 0 32
02:30 1022 30.18 851 25.13 9.5 49.1 51 -0 31.9
02:35 1022 30.18 851 25.13 9.8 49.7 50 -0.2 31.7
02:40 1022 30.18 851 25.13 9.9 49.9 50 -0 32
02:45 1022 30.18 851 25.13 9.8 49.6 51 0 32.1
02:50 1022 30.18 851 25.13 9.8 49.7 49 -0.3 31.5
02:55 1022 30.18 851 25.13 9.8 49.7 50 0 32.1
03:00 1022 30.18 851 25.13 9.6 49.3 49 -0.5 31.2
03:05 1022 30.18 851 25.13 9.8 49.6 51 0.1 32.1
03:10 1022 30.18 851 25.13 9.5 49.1 52 0.2 32.4
03:15 1022 30.18 851 25.13 9.2 48.6 52 -0.1 31.8
03:20 1022 30.18 851 25.13 9.5 49.1 50 -0.3 31.4
03:25 1022 30.18 851 25.13 9.9 49.8 49 -0.3 31.4
03:30 1022 30.18 851 25.13 10.1 50.2 49 -0 32
03:35 1022 30.18 851 25.13 9.6 49.4 51 0.1 32.2
03:40 1022 30.18 851 25.13 9.7 49.5 50 -0 32
03:45 1022 30.18 851 25.13 9.9 49.8 48 -0.7 30.8
03:50 1022 30.18 851 25.13 10.6 51 48 0.1 32.3
03:55 1022 30.18 851 25.13 10.6 51.1 48 0 32
04:00 1022 30.18 851 25.13 10.4 50.6 51 0.7 33.2
04:05 1022 30.18 851 25.13 9.7 49.5 50 -0 32
04:10 1022 30.18 851 25.13 9.9 49.8 51 0.2 32.4
04:15 1022 30.18 851 25.13 9 48.2 56 0.7 33.3
04:20 1022 30.18 851 25.13 8.4 47.2 55 -0.1 31.8
04:25 1022 30.18 851 25.13 8.8 47.8 54 -0.1 31.8
04:30 1022 30.18 851 25.13 8.8 47.9 56 0.5 32.8
04:35 1022 30.18 851 25.13 8.6 47.4 56 0.2 32.4
04:40 1022 30.18 851 25.13 8.3 47 57 0.4 32.7
04:45 1022 30.18 851 25.13 8.3 47 59 0.8 33.4
04:50 1022 30.18 851 25.13 8 46.5 59 0.6 33
04:55 1022 30.18 851 25.13 8 46.3 60 0.7 33.3
05:00 1022 30.18 851 25.13 7.9 46.2 59 0.3 32.6
05:05 1022 30.18 851 25.13 8 46.5 59 0.5 32.9
05:10 1022 30.18 851 25.13 7.4 45.3 63 0.9 33.6
05:15 1022 30.18 851 25.13 7 44.6 64 0.7 33.2
05:20 1022 30.18 851 25.13 6.8 44.3 65 0.6 33.2
05:25 1022 30.18 851 25.13 6.7 44.1 65 0.5 32.9
05:30 1022 30.18 852 25.16 6.7 44.1 65 0.7 33.2
05:35 1022 30.18 852 25.16 6.4 43.6 67 0.7 33.3
05:40 1022 30.18 851 25.13 6.5 43.7 65 0.3 32.6
05:45 1022 30.18 852 25.16 6.6 43.8 67 0.8 33.5
05:50 1022 30.18 852 25.16 6.2 43.2 68 0.7 33.2
05:55 1022 30.18 852 25.16 5.9 42.6 69 0.6 33.1
06:00 1022 30.18 852 25.16 6.1 42.9 67 0.4 32.7
06:05 1022 30.18 852 25.16 6.5 43.7 66 0.6 33
06:10 1022 30.18 852 25.16 6.6 43.9 65 0.4 32.8
06:15 1022 30.18 852 25.16 6.7 44 66 0.7 33.3
06:20 1023 30.21 852 25.16 6.6 43.8 65 0.5 33
06:25 1023 30.21 852 25.16 6.7 44.1 64 0.5 32.9
06:30 1023 30.21 852 25.16 6.5 43.7 67 0.8 33.5
06:35 1023 30.21 852 25.16 6.3 43.3 66 0.5 32.9
06:40 1023 30.21 852 25.16 6.3 43.3 67 0.6 33.1
06:45 1023 30.21 852 25.16 6.2 43.2 67 0.6 33.1
06:50 1023 30.21 852 25.16 6.1 43 68 0.7 33.2
06:55 1023 30.21 852 25.16 6 42.8 68 0.5 32.9
07:00 1023 30.21 852 25.16 6.1 42.9 68 0.6 33.1
07:05 1023 30.21 852 25.16 6 42.9 67 0.4 32.7
07:10 1023 30.21 852 25.16 6.2 43.1 67 0.6 33.1
07:15 1023 30.21 852 25.16 6 42.8 68 0.6 33.1
07:20 1023 30.21 852 25.16 5.7 42.3 69 0.5 33
07:25 1023 30.21 852 25.16 5.7 42.3 69 0.5 32.8
07:30 1023 30.21 852 25.16 5.9 42.6 68 0.4 32.8
07:35 1023 30.21 852 25.16 6.1 43 67 0.5 32.9
07:40 1023 30.21 852 25.16 6.7 44 62 0 32
07:45 1023 30.21 852 25.16 7.5 45.6 59 0.1 32.2
07:50 1023 30.21 852 25.16 7.9 46.2 58 0.3 32.5
07:55 1023 30.21 852 25.16 7.8 46 60 0.6 33
08:00 1023 30.21 852 25.16 7.4 45.4 61 0.5 32.9
08:05 1023 30.21 852 25.16 7.4 45.2 62 0.5 32.9
08:10 1023 30.21 852 25.16 7.3 45.1 62 0.6 33
08:15 1023 30.21 852 25.16 7.3 45.1 63 0.7 33.2
08:20 1023 30.21 852 25.16 7.1 44.8 64 0.7 33.2
08:25 1023 30.21 852 25.16 7.1 44.7 64 0.8 33.4
08:30 1023 30.21 852 25.16 7.4 45.3 62 0.5 32.9
08:35 1023 30.21 852 25.16 7.7 45.8 61 0.7 33.3
08:40 1023 30.21 852 25.16 8.2 46.7 59 0.6 33
08:45 1023 30.21 852 25.16 8.4 47.2 58 0.7 33.3
08:50 1023 30.21 852 25.16 8.9 48 58 1.1 34
08:55 1023 30.21 852 25.16 8.9 48 56 0.6 33.1
09:00 1023 30.21 852 25.16 8.8 47.8 59 1.4 34.4
09:05 1023 30.21 852 25.16 9 48.3 57 0.9 33.7
09:10 1023 30.21 852 25.16 9.2 48.5 58 1.3 34.3
09:15 1023 30.21 852 25.16 9.5 49.1 58 1.7 35
09:20 1023 30.21 852 25.16 10 50 57 1.9 35.4
09:25 1023 30.21 852 25.16 10.4 50.7 58 2.4 36.4
09:30 1023 30.21 852 25.16 10.6 51 57 2.4 36.3
09:35 1023 30.21 852 25.16 11 51.8 56 2.5 36.5
09:40 1023 30.21 852 25.16 11.2 52.2 56 3 37.3
09:45 1023 30.21 852 25.16 11.9 53.4 54 3 37.5
09:50 1023 30.21 852 25.16 12.6 54.6 47 1.7 35
09:55 1023 30.21 853 25.19 12.8 55.1 50 2.7 36.8
10:00 1023 30.21 853 25.19 13 55.4 47 1.9 35.4
10:05 1023 30.21 853 25.19 13.4 56 43 1.2 34.2
10:10 1023 30.21 853 25.19 13.5 56.3 45 2 35.5
10:15 1023 30.21 852 25.16 13.3 55.9 46 2 35.6
10:20 1023 30.21 852 25.16 13.8 56.8 44 1.8 35.2
10:25 1023 30.21 852 25.16 14.1 57.3 42 1.5 34.7
10:30 1023 30.21 852 25.16 15 59 38 1 33.8
10:35 1023 30.21 852 25.16 16.3 61.3 33 0 32.1
10:40 1023 30.21 853 25.19 16.6 61.9 33 0.5 32.9
10:45 1023 30.21 853 25.19 16.9 62.5 32 0.2 32.3
10:50 1023 30.21 853 25.19 17.5 63.5 32 0.6 33.1
10:55 1023 30.21 853 25.19 17.7 63.8 31 0.6 33
11:00 1023 30.21 853 25.19 17.6 63.7 32 0.8 33.4
11:05 1024 30.24 853 25.19 17.4 63.3 32 0.5 32.9
11:10 1024 30.24 853 25.19 17.2 63 34 1.3 34.3
11:15 1024 30.24 853 25.19 17 62.6 33 0.7 33.2
11:20 1024 30.24 853 25.19 17.4 63.3 34 1.3 34.4
11:25 1024 30.24 853 25.19 17.3 63.2 33 0.8 33.5
11:30 1024 30.24 853 25.19 17.3 63.1 31 0.2 32.3
11:35 1024 30.24 853 25.19 17.7 63.9 28 -0.7 30.8
11:40 1024 30.24 853 25.19 18.2 64.8 27 -0.7 30.7
11:45 1024 30.24 853 25.19 18.4 65.1 29 -0 32
11:50 1024 30.24 853 25.19 19.2 66.5 27 -0 31.9
11:55 1024 30.24 853 25.19 19.3 66.7 27 0.1 32.1
12:00 1024 30.24 853 25.19 19 66.2 28 0 32
12:05 1024 30.24 853 25.19 19.2 66.5 27 -0.2 31.7
12:10 1024 30.24 853 25.19 18.2 64.7 28 -0.3 31.4
12:15 1024 30.24 853 25.19 18.4 65.2 28 -0.5 31.2
12:20 1024 30.24 853 25.19 19.4 66.9 26 -0.4 31.4
12:25 1023 30.21 853 25.19 19.8 67.7 27 0.3 32.6
12:30 1023 30.21 853 25.19 20.2 68.4 26 0.1 32.2
12:35 1023 30.21 853 25.19 20.6 69 25 0.1 32.2
12:40 1023 30.21 853 25.19 20 68.1 27 0.5 33
12:45 1023 30.21 853 25.19 20.7 69.2 25 0.3 32.6
12:50 1023 30.21 853 25.19 20.9 69.5 26 1 33.8
12:55 1023 30.21 853 25.19 21.2 70.2 24 -0.2 31.7
13:00 1023 30.21 853 25.19 20.9 69.5 25 0.2 32.3
13:05 1023 30.21 852 25.16 20.7 69.3 25 0.3 32.5
13:10 1023 30.21 852 25.16 20.7 69.2 26 0.8 33.4
13:15 1023 30.21 852 25.16 20.3 68.6 26 0.2 32.4
13:20 1023 30.21 852 25.16 20.2 68.3 26 0.5 32.8
13:25 1023 30.21 852 25.16 20.4 68.6 25 0 32
13:30 1023 30.21 852 25.16 19.9 67.8 27 0.3 32.6
13:35 1023 30.21 852 25.16 19.8 67.6 27 0.5 32.8
13:40 1023 30.21 852 25.16 19.5 67.1 27 0.4 32.7
13:45 1023 30.21 852 25.16 19.4 66.9 27 0.1 32.2
13:50 1023 30.21 852 25.16 19.4 66.9 26 -0.5 31.1
13:55 1023 30.21 852 25.16 19.4 66.9 26 -0.3 31.4
14:00 1023 30.21 852 25.16 19.7 67.4 26 -0 31.9
14:05 1023 30.21 852 25.16 19.9 67.9 25 -0.4 31.3
14:10 1023 30.21 852 25.16 19.3 66.7 27 -0.2 31.7
14:15 1023 30.21 852 25.16 19.2 66.6 25 -1 30.1
14:20 1023 30.21 852 25.16 18.8 65.9 27 -0.7 30.8
14:25 1023 30.21 852 25.16 18.9 66.1 26 -0.7 30.7
14:30 1023 30.21 852 25.16 19.1 66.3 26 -0.7 30.7
14:35 1023 30.21 852 25.16 19.6 67.2 26 -0.3 31.4
14:40 1023 30.21 852 25.16 19.9 67.8 25 -0.8 30.6
14:45 1023 30.21 852 25.16 19.9 67.7 25 -0.8 30.6
14:50 1023 30.21 852 25.16 19.9 67.8 25 -0.8 30.5
14:55 1023 30.21 852 25.16 19.8 67.7 25 -0.7 30.8
15:00 1023 30.21 852 25.16 20.1 68.1 23 -1.5 29.3
15:05 1023 30.21 852 25.16 20.3 68.5 23 -1.3 29.7
15:10 1023 30.21 852 25.16 20.3 68.6 22 -1.8 28.8
15:15 1023 30.21 852 25.16 20.3 68.6 22 -1.7 28.9
15:20 1023 30.21 852 25.16 20.4 68.8 21 -2.2 28
15:25 1023 30.21 852 25.16 20.7 69.2 21 -2.3 27.9
15:30 1022 30.18 852 25.16 20.6 69.1 21 -2.2 28.1
15:35 1022 30.18 852 25.16 20.8 69.4 20 -2.7 27.1
15:40 1022 30.18 852 25.16 21.2 70.2 21 -1.9 28.5
15:45 1022 30.18 852 25.16 22.2 72 19 -2.4 27.7
15:50 1022 30.18 852 25.16 21.7 71.1 20 -1.9 28.6
15:55 1022 30.18 852 25.16 21.6 70.8 20 -2 28.5
16:00 1022 30.18 852 25.16 22.1 71.7 20 -1.9 28.6
16:05 1022 30.18 851 25.13 22.2 72 18 -3.3 26.1
16:10 1022 30.18 851 25.13 21.5 70.7 20 -2.5 27.6
16:15 1022 30.18 851 25.13 21.2 70.2 19 -3.4 25.9
16:20 1022 30.18 851 25.13 21.1 70.1 19 -3.4 25.9
16:25 1022 30.18 851 25.13 21.2 70.1 20 -2.8 27
16:30 1022 30.18 851 25.13 21 69.8 20 -2.8 27
16:35 1022 30.18 851 25.13 20.8 69.5 19 -3.3 26
16:40 1022 30.18 851 25.13 20.7 69.3 19 -3.2 26.2
16:45 1022 30.18 851 25.13 20.6 69 20 -2.8 26.9
16:50 1022 30.18 851 25.13 20.6 69 20 -3 26.7
16:55 1022 30.18 851 25.13 20.5 68.8 22 -2 28.4
17:00 1022 30.18 851 25.13 20.5 68.9 21 -2.7 27.1
17:05 1022 30.18 851 25.13 20.5 68.8 21 -2.3 27.8
17:10 1022 30.18 851 25.13 20.5 69 21 -2.4 27.7
17:15 1022 30.18 851 25.13 20.6 69.1 22 -1.8 28.7
17:20 1022 30.18 851 25.13 20.5 68.9 23 -1.4 29.4
17:25 1022 30.18 851 25.13 20.2 68.3 23 -1.7 29
17:30 1022 30.18 851 25.13 20.1 68.2 23 -1.5 29.4
17:35 1022 30.18 851 25.13 20 68.1 23 -1.4 29.4
17:40 1022 30.18 851 25.13 20 68 23 -1.6 29.2
17:45 1022 30.18 851 25.13 20 67.9 23 -1.9 28.5
17:50 1022 30.18 851 25.13 19.9 67.9 25 -0.4 31.4
17:55 1022 30.18 851 25.13 19.8 67.7 25 -0.4 31.3
18:00 1022 30.18 851 25.13 19.8 67.6 24 -1.4 29.5
18:05 1022 30.18 851 25.13 19.8 67.6 23 -2 28.4
18:10 1022 30.18 851 25.13 19.8 67.6 23 -1.8 28.8
18:15 1022 30.18 851 25.13 19.7 67.5 23 -1.9 28.6
18:20 1022 30.18 851 25.13 19.7 67.5 24 -1.2 29.9
18:25 1022 30.18 851 25.13 19.6 67.3 26 -0.3 31.5
18:30 1022 30.18 851 25.13 18.7 65.6 27 -0.6 31
18:35 1022 30.18 851 25.13 18.3 64.9 27 -0.8 30.5
18:40 1022 30.18 851 25.13 18.4 65.1 27 -0.6 31
18:45 1022 30.18 851 25.13 18.3 64.9 28 -0.7 30.8
18:50 1022 30.18 851 25.13 18.2 64.7 28 -0.5 31.2
18:55 1022 30.18 851 25.13 18.2 64.8 26 -1.4 29.5
19:00 1022 30.18 851 25.13 18.3 64.9 29 -0.1 31.8
19:05 1022 30.18 851 25.13 18.1 64.5 29 -0.1 31.9
19:10 1022 30.18 851 25.13 17.8 64.1 30 0.2 32.4
19:15 1022 30.18 851 25.13 17.4 63.3 32 0.5 33
19:20 1022 30.18 851 25.13 17.2 63 32 0.5 32.8
19:25 1022 30.18 851 25.13 17.4 63.3 33 1.2 34.2
19:30 1022 30.18 851 25.13 17.4 63.3 31 0.4 32.7
19:35 1022 30.18 851 25.13 17.3 63.2 33 0.8 33.5
19:40 1022 30.18 851 25.13 17.2 62.9 32 0.6 33.1
19:45 1022 30.18 852 25.16 16.9 62.3 38 2.5 36.5
19:50 1022 30.18 851 25.13 16.4 61.6 39 2.4 36.4
19:55 1022 30.18 851 25.13 16.7 62 32 -0.1 31.9
20:00 1022 30.18 851 25.13 17.1 62.8 31 0 32
20:05 1022 30.18 851 25.13 16.9 62.3 34 0.8 33.5
20:10 1022 30.18 852 25.16 16.3 61.4 36 1.4 34.5
20:15 1022 30.18 852 25.16 15.7 60.3 39 1.9 35.4
20:20 1022 30.18 852 25.16 15.6 60.1 38 1.6 34.9
20:25 1022 30.18 852 25.16 15.7 60.3 40 2.2 36
20:30 1022 30.18 852 25.16 15.5 59.9 40 2 35.6
20:35 1022 30.18 852 25.16 15.5 59.8 39 1.5 34.7
20:40 1022 30.18 852 25.16 15.2 59.4 40 1.9 35.5
20:45 1022 30.18 852 25.16 15.1 59.3 44 3 37.4
20:50 1022 30.18 852 25.16 15 59.1 39 1.4 34.5
20:55 1022 30.18 852 25.16 15 59.1 46 3.5 38.2
21:00 1022 30.18 852 25.16 15.2 59.3 39 1.4 34.5
21:05 1023 30.21 852 25.16 15.2 59.3 38 1.2 34.2
21:10 1023 30.21 852 25.16 15.2 59.3 37 0.8 33.5
21:15 1023 30.21 852 25.16 15.1 59.1 38 0.9 33.6
21:20 1023 30.21 852 25.16 14.9 58.9 39 1.3 34.3
21:25 1023 30.21 852 25.16 14.6 58.4 41 1.5 34.7
21:30 1023 30.21 852 25.16 15.3 59.5 30 -2 28.3
21:35 1023 30.21 852 25.16 16.7 62 32 -0.2 31.7
21:40 1023 30.21 852 25.16 16.6 61.9 32 -0.1 31.9
21:45 1023 30.21 852 25.16 16.5 61.8 31 -0.4 31.3
21:50 1023 30.21 852 25.16 16.3 61.3 32 -0.3 31.5
21:55 1023 30.21 852 25.16 16 60.9 34 0.3 32.6
22:00 1023 30.21 852 25.16 15.9 60.5 35 0.6 33.1
22:05 1023 30.21 852 25.16 15.9 60.6 33 -0.2 31.7
22:10 1023 30.21 852 25.16 15.7 60.3 35 0.2 32.4
22:15 1023 30.21 852 25.16 15.6 60 35 0.4 32.6
22:20 1023 30.21 852 25.16 15.7 60.3 38 1.5 34.7
22:25 1023 30.21 852 25.16 15.5 59.9 37 0.9 33.6
22:30 1023 30.21 852 25.16 15.4 59.7 45 3.6 38.6
22:35 1023 30.21 852 25.16 15.4 59.8 36 0.7 33.2
22:40 1023 30.21 852 25.16 15.2 59.4 40 1.6 35
22:45 1023 30.21 852 25.16 14.8 58.7 41 1.8 35.3
22:50 1023 30.21 852 25.16 14.6 58.3 38 0.4 32.7
22:55 1023 30.21 852 25.16 14.9 58.8 38 0.8 33.4
23:00 1023 30.21 852 25.16 14.6 58.2 40 1 33.9
23:05 1023 30.21 853 25.19 14.3 57.7 43 2 35.6
23:10 1023 30.21 853 25.19 14 57.2 41 1.2 34.1
23:15 1023 30.21 853 25.19 13.8 56.9 43 1.4 34.6
23:20 1023 30.21 853 25.19 14 57.1 42 1.3 34.4
23:25 1023 30.21 853 25.19 14.4 57.8 41 1.4 34.5
23:30 1023 30.21 853 25.19 14.3 57.7 41 1.3 34.3
23:35 1023 30.21 853 25.19 14.7 58.5 38 0.8 33.4
23:40 1023 30.21 852 25.16 15.4 59.6 37 0.8 33.5
23:45 1023 30.21 852 25.16 15.2 59.3 35 0.1 32.2
23:50 1023 30.21 852 25.16 15.3 59.6 34 -0.2 31.7
23:55 1023 30.21 853 25.19 15.5 59.9 35 0.2 32.4
24:00 1023 30.21 853 25.19 15.5 59.8 35 0.3 32.6